createdAt,value
2018-09-11T00:02:26.055Z,15.40
2018-09-11T00:04:58.229Z,15.40
2018-09-11T00:07:30.849Z,15.40
2018-09-11T00:10:01.229Z,15.40
2018-09-11T00:12:30.328Z,15.30
2018-09-11T00:14:58.584Z,15.30
2018-09-11T00:17:28.709Z,15.30
2018-09-11T00:20:05.096Z,15.30
2018-09-11T00:22:42.155Z,15.30
2018-09-11T00:25:13.111Z,15.30
2018-09-11T00:27:41.773Z,15.40
2018-09-11T00:30:10.157Z,15.30
2018-09-11T00:32:38.341Z,15.30
2018-09-11T00:35:06.657Z,15.30
2018-09-11T00:37:34.930Z,15.20
2018-09-11T00:40:03.129Z,15.20
2018-09-11T00:42:31.328Z,15.20
2018-09-11T00:44:59.530Z,15.20
2018-09-11T00:47:27.717Z,15.10
2018-09-11T00:49:56.910Z,15.10
2018-09-11T00:52:25.117Z,15.10
2018-09-11T00:54:53.335Z,15.00
2018-09-11T00:57:21.515Z,15.00
2018-09-11T00:59:54.301Z,15.00
2018-09-11T01:02:22.494Z,15.00
2018-09-11T01:04:50.697Z,15.10
2018-09-11T01:07:18.884Z,15.00
2018-09-11T01:09:47.178Z,15.00
2018-09-11T01:12:15.332Z,15.10
2018-09-11T01:14:43.522Z,15.10
2018-09-11T01:17:11.708Z,15.10
2018-09-11T01:19:40.123Z,15.10
2018-09-11T01:22:08.320Z,15.10
2018-09-11T01:24:36.525Z,15.10
2018-09-11T01:27:04.713Z,15.10
2018-09-11T01:29:32.916Z,15.20
2018-09-11T01:32:01.112Z,15.10
2018-09-11T01:34:29.313Z,15.10
2018-09-11T01:36:57.500Z,15.10
2018-09-11T01:39:25.684Z,15.10
2018-09-11T01:41:53.886Z,15.00
2018-09-11T01:44:22.065Z,15.10
2018-09-11T01:46:50.701Z,15.00
2018-09-11T01:49:18.929Z,15.10
2018-09-11T01:51:47.145Z,15.10
2018-09-11T01:54:15.335Z,15.10
2018-09-11T01:56:43.527Z,15.00
2018-09-11T01:59:12.409Z,15.10
2018-09-11T02:01:40.609Z,15.00
2018-09-11T02:04:08.809Z,15.00
2018-09-11T02:06:37.570Z,15.00
2018-09-11T02:09:08.607Z,15.00
2018-09-11T02:11:36.888Z,15.00
2018-09-11T02:14:06.344Z,15.00
2018-09-11T02:16:34.668Z,14.90
2018-09-11T02:19:02.880Z,15.00
2018-09-11T02:21:31.080Z,15.00
2018-09-11T02:23:59.320Z,14.90
2018-09-11T02:26:27.640Z,14.90
2018-09-11T02:28:55.975Z,14.90
2018-09-11T02:31:24.173Z,14.80
2018-09-11T02:33:52.365Z,14.80
2018-09-11T02:36:20.546Z,14.80
2018-09-11T02:38:48.766Z,14.70
2018-09-11T02:41:16.967Z,14.70
2018-09-11T02:43:45.809Z,14.70
2018-09-11T02:46:14.145Z,14.70
2018-09-11T02:48:42.377Z,14.70
2018-09-11T02:51:10.662Z,14.70
2018-09-11T02:53:38.984Z,14.70
2018-09-11T02:56:07.247Z,14.70
2018-09-11T02:58:35.413Z,14.60
2018-09-11T03:01:03.624Z,14.60
2018-09-11T03:03:31.832Z,14.60
2018-09-11T03:06:00.076Z,14.60
2018-09-11T03:08:28.286Z,14.60
2018-09-11T03:10:56.480Z,14.60
2018-09-11T03:13:24.684Z,14.60
2018-09-11T03:15:52.882Z,14.60
2018-09-11T03:18:21.080Z,14.60
2018-09-11T03:20:49.293Z,14.60
2018-09-11T03:23:17.645Z,14.60
2018-09-11T03:25:45.848Z,14.50
2018-09-11T03:28:14.033Z,14.60
2018-09-11T03:30:42.277Z,14.60
2018-09-11T03:33:10.460Z,14.60
2018-09-11T03:35:38.673Z,14.50
2018-09-11T03:38:06.859Z,14.50
2018-09-11T03:40:35.040Z,14.50
2018-09-11T03:43:03.242Z,14.50
2018-09-11T03:45:31.443Z,14.40
2018-09-11T03:47:59.698Z,14.40
2018-09-11T03:50:28.099Z,14.30
2018-09-11T03:52:56.299Z,14.30
2018-09-11T03:55:24.485Z,14.20
2018-09-11T03:57:52.739Z,14.20
2018-09-11T04:00:20.976Z,14.20
2018-09-11T04:02:49.150Z,14.10
2018-09-11T04:05:17.347Z,14.10
2018-09-11T04:07:45.548Z,14.10
2018-09-11T04:10:13.772Z,14.00
2018-09-11T04:12:41.949Z,14.00
2018-09-11T04:15:10.164Z,14.00
2018-09-11T04:17:40.584Z,14.00
2018-09-11T04:20:09.610Z,14.00
2018-09-11T04:22:38.800Z,14.00
2018-09-11T04:25:07.100Z,13.90
2018-09-11T04:27:35.607Z,13.90
2018-09-11T04:30:03.982Z,13.90
2018-09-11T04:32:32.175Z,13.90
2018-09-11T04:35:00.448Z,13.90
2018-09-11T04:37:28.607Z,13.80
2018-09-11T04:39:57.396Z,13.90
2018-09-11T04:42:25.791Z,13.80
2018-09-11T04:44:53.996Z,13.90
2018-09-11T04:47:22.180Z,13.90
2018-09-11T04:49:50.403Z,13.90
2018-09-11T04:52:18.601Z,13.90
2018-09-11T04:54:46.823Z,13.90
2018-09-11T04:57:15.024Z,13.90
2018-09-11T04:59:43.222Z,13.90
2018-09-11T05:02:11.556Z,13.90
2018-09-11T05:04:39.804Z,13.90
2018-09-11T05:07:08.364Z,14.00
2018-09-11T05:09:36.580Z,14.00
2018-09-11T05:12:04.838Z,14.00
2018-09-11T05:14:33.022Z,14.00
2018-09-11T05:17:01.216Z,14.10
2018-09-11T05:19:30.293Z,14.10
2018-09-11T05:21:58.510Z,14.10
2018-09-11T05:24:26.672Z,14.20
2018-09-11T05:26:54.875Z,14.20
2018-09-11T05:29:23.080Z,14.30
2018-09-11T05:31:51.263Z,14.40
2018-09-11T05:34:19.472Z,14.40
2018-09-11T05:36:47.676Z,14.50
2018-09-11T05:39:15.887Z,14.60
2018-09-11T05:41:44.104Z,14.70
2018-09-11T05:44:12.300Z,14.80
2018-09-11T05:46:40.477Z,14.90
2018-09-11T05:49:08.688Z,15.10
2018-09-11T05:51:37.021Z,15.20
2018-09-11T05:54:05.250Z,15.30
2018-09-11T05:56:33.434Z,15.40
2018-09-11T05:59:01.645Z,15.40
2018-09-11T06:01:30.477Z,15.50
2018-09-11T06:03:58.665Z,15.60
2018-09-11T06:06:26.853Z,15.60
2018-09-11T06:08:55.056Z,15.80
2018-09-11T06:11:23.258Z,15.90
2018-09-11T06:13:51.446Z,16.00
2018-09-11T06:16:19.674Z,16.00
2018-09-11T06:18:47.823Z,16.10
2018-09-11T06:21:16.021Z,16.20
2018-09-11T06:23:44.228Z,16.30
2018-09-11T06:26:12.428Z,16.50
2018-09-11T06:28:40.624Z,16.60
2018-09-11T06:31:08.951Z,16.80
2018-09-11T06:33:37.154Z,16.90
2018-09-11T06:36:05.588Z,17.00
2018-09-11T06:38:33.783Z,17.10
2018-09-11T06:41:02.000Z,17.30
2018-09-11T06:43:30.184Z,17.50
2018-09-11T06:45:58.627Z,17.60
2018-09-11T06:48:26.844Z,17.80
2018-09-11T06:50:55.037Z,17.90
2018-09-11T06:53:23.275Z,18.10
2018-09-11T06:55:51.465Z,18.20
2018-09-11T06:58:19.733Z,18.20
2018-09-11T07:00:47.912Z,18.30
2018-09-11T07:03:16.116Z,18.50
2018-09-11T07:05:44.322Z,18.60
2018-09-11T07:08:12.526Z,18.80
2018-09-11T07:10:40.707Z,18.90
2018-09-11T07:13:09.065Z,19.00
2018-09-11T07:15:37.258Z,19.10
2018-09-11T07:18:05.685Z,19.30
2018-09-11T07:20:33.880Z,19.40
2018-09-11T07:23:02.074Z,19.40
2018-09-11T07:25:30.276Z,19.50
2018-09-11T07:27:58.481Z,19.60
2018-09-11T07:30:26.698Z,19.70
2018-09-11T07:32:54.870Z,19.80
2018-09-11T07:35:23.044Z,19.80
2018-09-11T07:37:51.341Z,20.00
2018-09-11T07:40:19.479Z,20.10
2018-09-11T07:42:47.703Z,20.30
2018-09-11T07:45:15.877Z,20.30
2018-09-11T07:47:44.076Z,20.40
2018-09-11T07:50:12.259Z,20.50
2018-09-11T07:52:40.516Z,20.60
2018-09-11T07:55:08.684Z,20.70
2018-09-11T07:57:36.972Z,20.70
2018-09-11T08:00:06.024Z,20.80
2018-09-11T08:02:34.388Z,20.90
2018-09-11T08:05:02.626Z,20.90
2018-09-11T08:07:30.772Z,21.00
2018-09-11T08:09:58.940Z,21.10
2018-09-11T08:12:27.116Z,21.20
2018-09-11T08:14:55.311Z,21.30
2018-09-11T08:17:23.486Z,21.30
2018-09-11T08:19:52.346Z,21.40
2018-09-11T08:22:20.459Z,21.60
2018-09-11T08:24:48.659Z,21.60
2018-09-11T08:27:16.850Z,21.70
2018-09-11T08:29:45.059Z,21.70
2018-09-11T08:32:13.240Z,21.90
2018-09-11T08:34:41.428Z,22.00
2018-09-11T08:37:09.618Z,22.10
2018-09-11T08:39:37.868Z,22.20
2018-09-11T08:42:06.074Z,22.30
2018-09-11T08:44:34.255Z,22.40
2018-09-11T08:47:02.443Z,22.40
2018-09-11T08:49:30.644Z,22.50
2018-09-11T08:51:58.887Z,22.60
2018-09-11T08:54:27.026Z,22.60
2018-09-11T08:56:55.222Z,22.70
2018-09-11T08:59:23.642Z,22.80
2018-09-11T09:01:51.932Z,22.90
2018-09-11T09:04:20.156Z,22.90
2018-09-11T09:06:48.377Z,22.90
2018-09-11T09:09:16.552Z,23.00
2018-09-11T09:11:45.079Z,23.10
2018-09-11T09:14:13.261Z,23.00
2018-09-11T09:16:41.478Z,23.10
2018-09-11T09:19:09.760Z,23.20
2018-09-11T09:21:37.960Z,23.20
2018-09-11T09:24:06.162Z,23.30
2018-09-11T09:26:34.336Z,23.20
2018-09-11T09:29:02.540Z,23.20
2018-09-11T09:31:30.729Z,23.30
2018-09-11T09:33:58.920Z,23.20
2018-09-11T09:36:27.151Z,23.20
2018-09-11T09:38:55.308Z,23.30
2018-09-11T09:41:23.493Z,23.30
2018-09-11T09:43:51.741Z,23.30
2018-09-11T09:46:19.895Z,23.30
2018-09-11T09:48:48.085Z,23.40
2018-09-11T09:51:16.248Z,23.50
2018-09-11T09:58:31.632Z,23.60
2018-09-11T10:01:05.372Z,23.60
2018-09-11T10:03:33.656Z,23.80
2018-09-11T10:06:01.898Z,23.90
2018-09-11T10:08:30.092Z,24.00
2018-09-11T10:10:58.277Z,24.20
2018-09-11T10:13:26.452Z,24.30
2018-09-11T10:15:54.633Z,24.50
2018-09-11T10:18:22.827Z,24.50
2018-09-11T10:20:51.024Z,24.40
2018-09-11T10:23:19.213Z,24.50
2018-09-11T10:25:47.420Z,24.50
2018-09-11T10:28:15.634Z,24.50
2018-09-11T10:30:43.858Z,24.70
2018-09-11T10:33:12.327Z,24.70
2018-09-11T10:35:40.527Z,24.80
2018-09-11T10:38:08.734Z,24.90
2018-09-11T10:40:36.931Z,24.90
2018-09-11T10:43:05.139Z,24.90
2018-09-11T10:45:33.330Z,24.90
2018-09-11T10:48:01.530Z,24.90
2018-09-11T10:50:29.721Z,24.90
2018-09-11T10:52:57.901Z,25.00
2018-09-11T10:55:26.113Z,25.00
2018-09-11T10:57:54.328Z,25.10
2018-09-11T11:00:22.597Z,25.20
2018-09-11T11:02:50.723Z,25.20
2018-09-11T11:05:18.908Z,25.30
2018-09-11T11:07:47.119Z,25.40
2018-09-11T11:10:15.305Z,25.60
2018-09-11T11:12:43.496Z,25.70
2018-09-11T11:15:11.697Z,25.90
2018-09-11T11:17:39.888Z,26.00
2018-09-11T11:20:08.102Z,26.20
2018-09-11T11:22:36.308Z,26.30
2018-09-11T11:25:04.502Z,26.40
2018-09-11T11:27:32.692Z,26.50
2018-09-11T11:30:00.865Z,26.50
2018-09-11T11:32:29.096Z,26.30
2018-09-11T11:34:57.297Z,26.40
2018-09-11T11:37:25.669Z,26.40
2018-09-11T11:39:53.716Z,26.30
2018-09-11T11:42:21.988Z,26.40
2018-09-11T11:44:50.166Z,26.40
2018-09-11T11:47:19.951Z,26.40
2018-09-11T11:49:48.841Z,26.40
2018-09-11T11:52:17.063Z,26.40
2018-09-11T11:54:45.433Z,26.30
2018-09-11T11:57:13.624Z,26.40
2018-09-11T11:59:42.055Z,26.40
2018-09-11T12:02:10.533Z,26.40
2018-09-11T12:04:38.674Z,26.40
2018-09-11T12:07:06.914Z,26.40
2018-09-11T12:09:35.105Z,26.30
2018-09-11T12:12:03.312Z,26.50
2018-09-11T12:14:31.508Z,26.50
2018-09-11T12:16:59.788Z,26.60
2018-09-11T12:19:27.922Z,26.60
2018-09-11T12:21:56.124Z,26.60
2018-09-11T12:24:24.348Z,26.60
2018-09-11T12:26:52.984Z,26.40
2018-09-11T12:29:21.097Z,26.40
2018-09-11T12:31:49.277Z,26.50
2018-09-11T12:34:17.465Z,26.40
2018-09-11T12:36:45.656Z,26.40
2018-09-11T12:39:13.856Z,26.40
2018-09-11T12:41:42.048Z,26.40
2018-09-11T12:44:10.265Z,26.40
2018-09-11T12:46:38.660Z,26.50
2018-09-11T12:49:06.679Z,26.50
2018-09-11T12:51:34.867Z,26.60
2018-09-11T12:54:03.092Z,26.80
2018-09-11T12:56:31.295Z,26.80
2018-09-11T12:58:59.484Z,26.80
2018-09-11T13:01:27.697Z,26.80
2018-09-11T13:03:55.889Z,26.80
2018-09-11T13:06:24.088Z,26.70
2018-09-11T13:08:52.275Z,26.80
2018-09-11T13:11:20.473Z,26.90
2018-09-11T13:13:48.695Z,26.90
2018-09-11T13:16:16.876Z,26.80
2018-09-11T13:18:45.066Z,26.80
2018-09-11T13:21:13.272Z,26.80
2018-09-11T13:23:41.508Z,26.80
2018-09-11T13:26:09.719Z,26.80
2018-09-11T13:28:37.954Z,26.80
2018-09-11T13:31:06.148Z,26.90
2018-09-11T13:33:34.380Z,27.00
2018-09-11T13:36:02.574Z,27.00
2018-09-11T13:38:30.782Z,27.00
2018-09-11T13:40:58.973Z,27.00
2018-09-11T13:43:27.184Z,27.10
2018-09-11T13:45:55.376Z,27.10
2018-09-11T13:48:23.569Z,27.20
2018-09-11T13:50:51.810Z,27.10
2018-09-11T13:53:20.026Z,27.20
2018-09-11T13:55:48.215Z,27.10
2018-09-11T13:58:16.431Z,27.10
2018-09-11T14:00:44.685Z,27.10
2018-09-11T14:03:12.984Z,26.90
2018-09-11T14:05:41.185Z,26.90
2018-09-11T14:08:09.805Z,27.00
2018-09-11T14:10:38.038Z,27.00
2018-09-11T14:13:06.404Z,27.00
2018-09-11T14:15:34.620Z,27.00
2018-09-11T14:18:02.877Z,26.90
2018-09-11T14:20:31.120Z,27.00
2018-09-11T14:22:59.489Z,27.00
2018-09-11T14:25:27.792Z,26.90
2018-09-11T14:27:56.107Z,26.80
2018-09-11T14:30:24.384Z,26.90
2018-09-11T14:32:52.601Z,26.90
2018-09-11T14:35:20.792Z,26.80
2018-09-11T14:37:49.008Z,26.80
2018-09-11T14:40:17.481Z,26.80
2018-09-11T14:42:45.668Z,26.80
2018-09-11T14:45:13.915Z,26.70
2018-09-11T14:47:42.757Z,26.70
2018-09-11T14:50:11.979Z,26.60
2018-09-11T14:52:40.239Z,26.60
2018-09-11T14:55:09.004Z,26.60
2018-09-11T14:57:37.356Z,26.60
2018-09-11T15:00:06.247Z,26.50
2018-09-11T15:02:34.389Z,26.50
2018-09-11T15:05:02.608Z,26.40
2018-09-11T15:07:30.968Z,26.40
2018-09-11T15:09:59.224Z,26.30
2018-09-11T15:12:27.436Z,26.30
2018-09-11T15:14:55.688Z,26.30
2018-09-11T15:17:23.881Z,26.30
2018-09-11T15:19:52.116Z,26.20
2018-09-11T15:22:20.348Z,26.20
2018-09-11T15:24:48.547Z,26.10
2018-09-11T15:27:16.737Z,26.10
2018-09-11T15:29:44.950Z,26.00
2018-09-11T15:32:13.171Z,26.00
2018-09-11T15:34:41.361Z,26.00
2018-09-11T15:37:09.549Z,25.90
2018-09-11T15:39:37.754Z,25.80
2018-09-11T15:42:05.996Z,25.80
2018-09-11T15:44:34.252Z,25.60
2018-09-11T15:47:02.711Z,25.60
2018-09-11T15:49:30.850Z,25.50
2018-09-11T15:51:59.089Z,25.50
2018-09-11T15:54:27.298Z,25.50
2018-09-11T15:56:55.500Z,25.50
2018-09-11T15:59:23.702Z,25.40
2018-09-11T16:01:51.912Z,25.40
2018-09-11T16:04:20.167Z,25.30
2018-09-11T16:06:48.433Z,25.20
2018-09-11T16:09:16.770Z,25.10
2018-09-11T16:11:45.071Z,25.00
2018-09-11T16:14:13.311Z,24.90
2018-09-11T16:16:41.989Z,24.80
2018-09-11T16:19:10.276Z,24.70
2018-09-11T16:21:38.503Z,24.60
2018-09-11T16:24:12.682Z,24.50
2018-09-11T16:26:41.068Z,24.40
2018-09-11T16:29:09.272Z,24.30
2018-09-11T16:31:38.061Z,24.20
2018-09-11T16:34:06.273Z,24.10
2018-09-11T16:36:34.478Z,24.00
2018-09-11T16:39:02.725Z,24.00
2018-09-11T16:41:30.973Z,23.90
2018-09-11T16:43:59.180Z,23.80
2018-09-11T16:46:27.415Z,23.60
2018-09-11T16:48:56.914Z,23.50
2018-09-11T16:51:25.582Z,23.40
2018-09-11T16:53:53.872Z,23.30
2018-09-11T16:56:22.223Z,23.20
2018-09-11T16:58:50.887Z,23.10
2018-09-11T17:01:19.134Z,23.00
2018-09-11T17:03:47.533Z,22.90
2018-09-11T17:06:15.777Z,22.80
2018-09-11T17:08:44.315Z,22.70
2018-09-11T17:11:12.519Z,22.50
2018-09-11T17:13:40.868Z,22.40
2018-09-11T17:16:09.438Z,22.30
2018-09-11T17:18:37.733Z,22.20
2018-09-11T17:21:06.035Z,22.10
2018-09-11T17:23:34.295Z,22.00
2018-09-11T17:26:03.359Z,21.80
2018-09-11T17:28:32.872Z,21.70
2018-09-11T17:31:02.506Z,21.50
2018-09-11T17:33:31.089Z,21.40
2018-09-11T17:35:59.494Z,21.20
2018-09-11T17:38:27.849Z,21.10
2018-09-11T17:40:56.163Z,20.90
2018-09-11T17:43:24.626Z,20.80
2018-09-11T17:48:28.265Z,20.50
2018-09-11T17:50:56.775Z,20.40
2018-09-11T17:53:25.184Z,20.20
2018-09-11T17:55:55.573Z,20.10
2018-09-11T17:58:23.852Z,20.10
2018-09-11T18:00:53.496Z,19.90
2018-09-11T18:03:21.743Z,19.90
2018-09-11T18:05:50.147Z,19.70
2018-09-11T18:08:19.157Z,19.70
2018-09-11T18:10:51.528Z,19.60
2018-09-11T18:13:21.665Z,19.50
2018-09-11T18:15:52.578Z,19.40
2018-09-11T18:18:25.009Z,19.30
2018-09-11T18:21:00.161Z,19.30
2018-09-11T18:23:31.989Z,19.20
2018-09-11T18:26:00.470Z,19.10
2018-09-11T18:28:29.025Z,19.00
2018-09-11T18:30:58.631Z,18.80
2018-09-11T18:33:26.909Z,18.70
2018-09-11T18:35:55.162Z,18.60
2018-09-11T18:38:23.524Z,18.50
2018-09-11T18:40:51.828Z,18.40
2018-09-11T18:43:20.040Z,18.30
2018-09-11T18:48:23.749Z,18.10
2018-09-11T18:50:52.209Z,18.10
2018-09-11T18:53:20.685Z,18.00
2018-09-11T18:55:49.021Z,18.00
2018-09-11T18:58:18.096Z,17.90
2018-09-11T19:00:46.314Z,17.80
2018-09-11T19:03:14.704Z,17.80
2018-09-11T19:05:43.912Z,17.70
2018-09-11T19:08:12.260Z,17.70
2018-09-11T19:10:40.499Z,17.60
2018-09-11T19:13:09.284Z,17.50
2018-09-11T19:15:38.066Z,17.50
2018-09-11T19:18:10.183Z,17.40
2018-09-11T19:20:39.155Z,17.40
2018-09-11T19:23:07.758Z,17.30
2018-09-11T19:25:35.964Z,17.30
2018-09-11T19:28:04.358Z,17.30
2018-09-11T19:30:32.744Z,17.30
2018-09-11T19:33:02.230Z,17.30
2018-09-11T19:35:30.521Z,17.30
2018-09-11T19:38:03.241Z,17.20
2018-09-11T19:40:31.509Z,17.20
2018-09-11T19:42:59.780Z,17.10
2018-09-11T19:45:28.013Z,17.10
2018-09-11T19:47:56.216Z,17.00
2018-09-11T19:50:24.491Z,17.00
2018-09-11T19:52:52.679Z,17.00
2018-09-11T19:55:21.454Z,17.00
2018-09-11T19:57:50.020Z,17.00
2018-09-11T20:00:18.419Z,16.90
2018-09-11T20:02:46.675Z,16.90
2018-09-11T20:05:14.957Z,16.80
2018-09-11T20:07:43.393Z,16.70
2018-09-11T20:10:12.075Z,16.70
2018-09-11T20:12:40.805Z,16.60
2018-09-11T20:15:09.025Z,16.50
2018-09-11T20:17:37.284Z,16.50
2018-09-11T20:20:05.525Z,16.50
2018-09-11T20:22:33.774Z,16.40
2018-09-11T20:25:02.130Z,16.40
2018-09-11T20:27:30.874Z,16.40
2018-09-11T20:29:59.090Z,16.40
2018-09-11T20:32:27.281Z,16.30
2018-09-11T20:34:55.509Z,16.30
2018-09-11T20:37:23.739Z,16.40
2018-09-11T20:39:52.218Z,16.40
2018-09-11T20:42:21.244Z,16.40
2018-09-11T20:44:49.468Z,16.40
2018-09-11T20:47:17.665Z,16.50
2018-09-11T20:49:45.873Z,16.40
2018-09-11T20:52:16.476Z,16.40
2018-09-11T20:54:44.696Z,16.40
2018-09-11T20:57:12.917Z,16.30
2018-09-11T20:59:45.374Z,16.30
2018-09-11T21:02:13.613Z,16.30
2018-09-11T21:04:41.824Z,16.40
2018-09-11T21:07:11.865Z,16.30
2018-09-11T21:09:40.089Z,16.30
2018-09-11T21:12:08.331Z,16.20
2018-09-11T21:14:37.843Z,16.20
2018-09-11T21:17:06.065Z,16.10
2018-09-11T21:19:36.484Z,16.00
2018-09-11T21:22:04.818Z,16.00
2018-09-11T21:24:34.390Z,15.90
2018-09-11T21:27:04.409Z,15.90
2018-09-11T21:29:33.370Z,15.80
2018-09-11T21:32:01.612Z,15.70
2018-09-11T21:34:29.837Z,15.70
2018-09-11T21:36:58.179Z,15.60
2018-09-11T21:39:26.405Z,15.60
2018-09-11T21:41:55.443Z,15.60
2018-09-11T21:44:23.716Z,15.60
2018-09-11T21:46:52.006Z,15.60
2018-09-11T21:49:21.125Z,15.50
2018-09-11T21:51:49.338Z,15.50
2018-09-11T21:54:17.621Z,15.40
2018-09-11T21:56:45.803Z,15.40
2018-09-11T21:59:14.011Z,15.40
2018-09-11T22:01:44.859Z,15.30
2018-09-11T22:04:13.105Z,15.30
2018-09-11T22:06:41.337Z,15.30
2018-09-11T22:09:10.719Z,15.30
2018-09-11T22:11:39.305Z,15.30
2018-09-11T22:14:08.192Z,15.30
2018-09-11T22:16:36.576Z,15.30
2018-09-11T22:19:04.863Z,15.30
2018-09-11T22:21:33.349Z,15.20
2018-09-11T22:24:03.125Z,15.20
2018-09-11T22:26:31.390Z,15.20
2018-09-11T22:28:59.908Z,15.20
2018-09-11T22:31:28.506Z,15.30
2018-09-11T22:33:56.703Z,15.30
2018-09-11T22:36:25.265Z,15.30
2018-09-11T22:38:53.481Z,15.30
2018-09-11T22:41:21.709Z,15.30
2018-09-11T22:43:51.037Z,15.30
2018-09-11T22:46:19.246Z,15.30
2018-09-11T22:48:47.436Z,15.40
2018-09-11T22:51:15.653Z,15.40
2018-09-11T22:53:43.864Z,15.40
2018-09-11T22:56:12.442Z,15.40
2018-09-11T22:58:40.649Z,15.30
2018-09-11T23:01:08.846Z,15.40
2018-09-11T23:03:37.044Z,15.40
2018-09-11T23:06:05.248Z,15.40
2018-09-11T23:08:33.548Z,15.40
2018-09-11T23:11:01.784Z,15.50
2018-09-11T23:13:30.027Z,15.50
2018-09-11T23:15:58.226Z,15.50
2018-09-11T23:18:26.527Z,15.50
2018-09-11T23:20:54.727Z,15.50
2018-09-11T23:23:22.980Z,15.40
2018-09-11T23:25:51.228Z,15.40
2018-09-11T23:28:19.436Z,15.40
2018-09-11T23:30:47.639Z,15.40
2018-09-11T23:33:15.880Z,15.40
2018-09-11T23:35:44.092Z,15.40
2018-09-11T23:38:12.381Z,15.40
2018-09-11T23:40:40.580Z,15.40
2018-09-11T23:43:08.801Z,15.40
2018-09-11T23:45:37.013Z,15.40
2018-09-11T23:48:05.283Z,15.40
2018-09-11T23:50:33.509Z,15.40
2018-09-11T23:53:02.287Z,15.40
2018-09-11T23:55:30.488Z,15.30
2018-09-11T23:57:58.721Z,15.30
